Time;durP1;ratioP1;P1;durP2;ratioP2;P2;SDS_P1;SDS_P2;PMS_P1;PMS_P2;Temp;Humidity;BMP_temperature;BMP_pressure;BME280_temperature;BME280_humidity;BME280_pressure;Samples;Min_cycle;Max_cycle;Signal;HPM_P1;HPM_P2
2022/11/28 00:01:54;;;;;;;5.00;2.55;;;;;;;-148.88;91.83;76378.50;5012357;28;20018;-74
2022/11/28 00:04:19;;;;;;;7.07;3.50;;;;;;;-148.88;91.80;76374.44;5014141;28;20534;-74
2022/11/28 00:06:47;;;;;;;5.45;2.88;;;;;;;-148.88;90.58;76370.38;5012400;28;20025;-74
2022/11/28 00:09:14;;;;;;;5.75;2.90;;;;;;;-148.88;90.13;76362.25;5014152;28;20056;-74
2022/11/28 00:11:40;;;;;;;5.35;2.60;;;;;;;-148.88;90.39;76356.16;5014113;28;20105;-74
2022/11/28 00:14:06;;;;;;;4.72;2.83;;;;;;;-148.88;90.25;76356.16;5014003;28;20090;-74
2022/11/28 00:16:32;;;;;;;5.18;3.00;;;;;;;-148.88;90.43;76350.06;5014061;28;20028;-74
2022/11/28 00:18:59;;;;;;;5.15;2.80;;;;;;;-148.88;90.19;76341.94;5013667;28;20104;-74
2022/11/28 00:21:25;;;;;;;5.47;2.80;;;;;;;-148.88;89.10;76346.00;5014073;28;20029;-74
2022/11/28 00:23:50;;;;;;;6.03;3.17;;;;;;;-148.88;89.36;76348.03;5012169;28;20018;-74
2022/11/28 00:26:25;;;;;;;5.78;3.17;;;;;;;-148.88;89.12;76362.25;5013943;28;20049;-74
2022/11/28 00:28:51;;;;;;;6.60;3.35;;;;;;;-148.88;89.90;76364.28;5014064;28;20026;-74
2022/11/28 00:31:23;;;;;;;6.43;3.45;;;;;;;-148.88;88.70;76364.28;5013649;28;20505;-74
2022/11/28 00:33:48;;;;;;;6.85;2.97;;;;;;;-148.88;88.28;76350.06;5013648;28;20021;-74
2022/11/28 00:36:14;;;;;;;5.28;3.13;;;;;;;-148.88;88.29;76346.00;5013475;28;20037;-74
2022/11/28 00:38:40;;;;;;;5.07;2.67;;;;;;;-148.88;87.72;76343.97;5013598;28;20041;-74
2022/11/28 00:41:09;;;;;;;5.13;3.00;;;;;;;-148.88;87.04;76329.75;5013550;28;20048;-74
2022/11/28 00:43:34;;;;;;;6.70;3.40;;;;;;;-148.88;87.57;76325.69;5011873;28;20018;-74
2022/11/28 00:45:59;;;;;;;6.38;3.20;;;;;;;-148.88;87.79;76333.81;5013506;28;20022;-74
2022/11/28 00:48:25;;;;;;;4.95;3.13;;;;;;;-148.88;87.50;76323.66;5013607;28;20110;-74
2022/11/28 00:50:52;;;;;;;5.32;3.10;;;;;;;-148.88;87.25;76309.44;5011912;28;20029;-74
2022/11/28 00:53:17;;;;;;;5.78;3.08;;;;;;;-148.88;86.05;76307.41;5013294;28;20022;-74
2022/11/28 00:55:43;;;;;;;8.80;3.63;;;;;;;-148.88;85.78;76305.38;5013107;28;20116;-74
2022/11/28 00:58:08;;;;;;;5.43;3.45;;;;;;;-148.88;85.65;76289.13;5013159;28;20022;-74
2022/11/28 01:00:35;;;;;;;5.65;2.88;;;;;;;-148.88;85.72;76287.09;5013515;28;20053;-74
2022/11/28 01:03:00;;;;;;;6.20;3.30;;;;;;;-148.88;85.84;76281.00;5013058;28;20083;-74
2022/11/28 01:05:25;;;;;;;4.65;2.70;;;;;;;-148.88;85.30;76268.81;5013361;28;20060;-74
2022/11/28 01:07:51;;;;;;;5.22;3.05;;;;;;;-148.88;85.32;76264.75;5011850;28;20028;-75
2022/11/28 01:10:16;;;;;;;4.25;2.67;;;;;;;-148.88;86.42;76272.88;5013289;28;20021;-74
2022/11/28 01:12:42;;;;;;;5.50;3.33;;;;;;;-148.88;86.91;76268.81;5012111;28;20022;-74
2022/11/28 01:15:10;;;;;;;7.13;3.05;;;;;;;-148.88;88.29;76281.00;5012960;28;20378;-74
2022/11/28 01:17:36;;;;;;;5.47;3.03;;;;;;;-148.88;87.60;76274.91;5013004;28;20037;-75
2022/11/28 01:20:04;;;;;;;5.57;2.70;;;;;;;-148.88;88.36;76283.03;5013262;28;20026;-74
2022/11/28 01:22:30;;;;;;;6.60;3.13;;;;;;;-148.88;88.00;76289.13;5012956;28;20480;-74
2022/11/28 01:24:55;;;;;;;7.40;3.15;;;;;;;-148.88;87.78;76289.13;5013197;28;20025;-75
2022/11/28 01:27:20;;;;;;;6.40;2.90;;;;;;;-148.88;87.43;76305.38;5066344;22;20066;-88
2022/11/28 01:29:46;;;;;;;7.45;3.05;;;;;;;-148.88;87.53;76295.22;5016217;28;20080;-87
2022/11/28 01:32:11;;;;;;;5.50;3.05;;;;;;;-148.88;86.44;76291.16;5016121;28;20049;-86
2022/11/28 01:34:37;;;;;;;4.53;2.55;;;;;;;-148.88;86.38;76281.00;5016165;28;20492;-86
2022/11/28 01:37:02;;;;;;;5.15;2.85;;;;;;;-148.88;86.16;76272.88;5015268;28;20022;-87
2022/11/28 01:39:28;;;;;;;6.80;2.80;;;;;;;-148.88;85.56;76274.91;5014308;28;20361;-87
2022/11/28 01:41:53;;;;;;;4.30;2.65;;;;;;;-148.88;85.39;76272.88;5014846;28;20033;-87
2022/11/28 01:44:18;;;;;;;6.95;3.30;;;;;;;-148.88;86.13;76270.84;5014545;28;20149;-87
2022/11/28 01:46:43;;;;;;;4.55;2.60;;;;;;;-148.88;84.75;76262.72;5014672;28;20022;-87
2022/11/28 01:49:24;;;;;;;5.43;2.88;;;;;;;-148.88;85.81;76262.72;5012986;28;20376;-87
2022/11/28 01:51:55;;;;;;;5.32;3.03;;;;;;;-148.88;85.59;76266.78;5013962;28;20030;-87
2022/11/28 01:54:23;;;;;;;5.45;2.75;;;;;;;-148.88;85.88;76260.69;5012524;28;20078;-87
2022/11/28 01:56:59;;;;;;;5.60;2.75;;;;;;;-148.88;84.69;76260.69;5014272;28;20204;-87
2022/11/28 01:59:27;;;;;;;6.55;3.33;;;;;;;-148.88;84.93;76260.69;5014488;28;20033;-88
2022/11/28 02:01:56;;;;;;;6.35;3.08;;;;;;;-148.88;84.18;76256.63;5013060;28;20052;-87
2022/11/28 02:04:24;;;;;;;7.57;3.05;;;;;;;-148.88;84.02;76252.56;5014607;28;20026;-86
2022/11/28 02:06:50;;;;;;;4.97;2.70;;;;;;;-148.88;84.20;76254.59;5014341;28;20029;-87
2022/11/28 02:09:16;;;;;;;4.80;2.88;;;;;;;-148.88;84.82;76256.63;5014187;28;20022;-87
2022/11/28 02:12:25;;;;;;;7.43;3.70;;;;;;;-148.88;84.74;76256.63;5014711;28;20018;-86
2022/11/28 02:15:09;;;;;;;7.50;3.00;;;;;;;-148.88;85.54;76250.53;5014641;28;20080;-86
2022/11/28 02:17:54;;;;;;;7.68;3.53;;;;;;;-148.88;85.28;76244.44;5014595;28;20025;-87
2022/11/28 02:21:04;;;;;;;6.18;3.30;;;;;;;-148.88;86.28;76252.56;5015692;28;20037;-87
2022/11/28 02:23:41;;;;;;;7.30;3.22;;;;;;;-148.88;86.45;76252.56;5010785;28;20052;-87
2022/11/28 02:26:06;;;;;;;5.63;3.08;;;;;;;-148.88;86.05;76252.56;5017719;28;20116;-87
2022/11/28 02:28:37;;;;;;;5.70;3.27;;;;;;;-148.88;86.35;76242.41;5018305;28;20029;-86
2022/11/28 02:31:27;;;;;;;6.60;3.38;;;;;;;-148.88;87.08;76240.38;5018082;28;20259;-86
2022/11/28 02:34:01;;;;;;;5.80;3.10;;;;;;;-148.88;87.18;76246.47;5017793;28;20030;-87
2022/11/28 02:36:45;;;;;;;6.07;3.35;;;;;;;-148.88;87.13;76244.44;5017615;28;20101;-87
2022/11/28 02:39:13;;;;;;;;;;;;;;;-148.88;87.83;76250.53;5017257;28;20550;-87
2022/11/28 02:41:47;;;;;;;7.72;3.17;;;;;;;-148.88;87.72;76254.59;5017904;28;19913;-86
2022/11/28 02:44:17;;;;;;;5.93;3.22;;;;;;;-148.88;89.56;76260.69;5018393;28;20548;-86
2022/11/28 02:47:17;;;;;;;6.90;3.55;;;;;;;-148.88;90.17;76264.75;5017643;28;20439;-86
2022/11/28 02:49:52;;;;;;;5.60;3.03;;;;;;;-148.88;90.43;76281.00;5017705;28;20109;-86
2022/11/28 02:52:25;;;;;;;5.15;2.95;;;;;;;-148.88;90.65;76272.88;5017181;28;20033;-86
2022/11/28 02:54:52;;;;;;;6.88;3.65;;;;;;;-148.88;90.56;76268.81;5016935;28;20026;-87
2022/11/28 02:57:17;;;;;;;6.78;3.22;;;;;;;-148.88;89.82;76260.69;5016599;28;20104;-87
2022/11/28 02:59:45;;;;;;;7.47;4.43;;;;;;;-148.88;89.02;76260.69;5017522;28;20164;-86
2022/11/28 03:02:29;;;;;;;7.10;3.83;;;;;;;-148.88;89.36;76256.63;5017588;28;20040;-86
2022/11/28 03:05:18;;;;;;;6.88;3.63;;;;;;;-148.88;89.60;76256.63;5016504;28;20030;-86
2022/11/28 03:08:04;;;;;;;9.50;3.95;;;;;;;-148.88;91.30;76268.81;5018208;28;20046;-87
2022/11/28 03:11:00;;;;;;;6.57;3.72;;;;;;;-148.88;93.17;76285.06;5017188;28;20088;-87
2022/11/28 03:13:38;;;;;;;8.10;3.50;;;;;;;-148.88;93.32;76293.19;5018915;28;20427;-87
2022/11/28 03:16:22;;;;;;;7.72;3.72;;;;;;;-148.88;93.02;76297.25;5018416;28;20183;-86
2022/11/28 03:19:16;;;;;;;6.22;3.42;;;;;;;-148.88;94.05;76301.31;5018064;28;20025;-87
2022/11/28 03:21:49;;;;;;;7.93;3.97;;;;;;;-148.88;94.11;76299.28;5013820;28;20465;-85
2022/11/28 03:24:21;;;;;;;9.27;4.18;;;;;;;-148.88;93.88;76301.31;5017183;28;20441;-86
2022/11/28 03:26:52;;;;;;;10.35;3.88;;;;;;;-148.88;94.10;76305.38;5016194;28;20030;-86
2022/11/28 03:29:20;;;;;;;8.55;4.40;;;;;;;-148.88;95.08;76305.38;5016029;28;20033;-87
2022/11/28 03:32:01;;;;;;;7.43;4.32;;;;;;;-148.88;95.59;76311.47;5016750;28;20388;-86
2022/11/28 03:34:33;;;;;;;7.82;3.90;;;;;;;-148.88;96.35;76313.50;5015934;28;20026;-87
2022/11/28 03:37:07;;;;;;;8.38;4.63;;;;;;;-148.88;96.04;76305.38;5015319;28;20089;-87
2022/11/28 03:39:38;;;;;;;7.18;4.07;;;;;;;-148.88;96.08;76311.47;5014611;28;20017;-87
2022/11/28 03:42:18;;;;;;;7.65;3.75;;;;;;;-148.88;96.89;76311.47;5015200;28;20093;-86
2022/11/28 03:44:48;;;;;;;8.07;4.10;;;;;;;-148.88;96.72;76307.41;5015919;28;20033;-86
2022/11/28 03:47:14;;;;;;;9.60;5.13;;;;;;;-148.88;96.83;76313.50;5015537;28;20087;-86
2022/11/28 03:49:45;;;;;;;8.82;4.80;;;;;;;-148.88;97.34;76317.56;5015519;28;20022;-86
2022/11/28 03:52:28;;;;;;;8.82;4.30;;;;;;;-148.88;97.43;76317.56;5016775;28;20054;-87
2022/11/28 03:55:06;;;;;;;9.07;3.90;;;;;;;-148.88;98.24;76311.47;5016416;28;20437;-87
2022/11/28 03:57:46;;;;;;;8.50;4.80;;;;;;;-148.88;97.98;76317.56;5015536;28;20061;-86
2022/11/28 04:00:12;;;;;;;9.02;4.65;;;;;;;-148.88;98.17;76313.50;5015853;28;20036;-86
2022/11/28 04:02:59;;;;;;;6.95;3.63;;;;;;;-148.88;97.56;76311.47;5015352;28;20030;-87
2022/11/28 04:05:31;;;;;;;8.88;3.95;;;;;;;-148.88;98.48;76313.50;5014890;28;20037;-87
2022/11/28 04:08:04;;;;;;;9.27;4.13;;;;;;;-148.88;99.13;76313.50;5014872;28;20029;-87
2022/11/28 04:10:37;;;;;;;9.60;4.97;;;;;;;-148.88;99.01;76315.53;5015408;28;20048;-87
2022/11/28 04:13:28;;;;;;;8.82;3.95;;;;;;;-148.88;99.93;76317.56;5015411;28;20026;-86
2022/11/28 04:16:10;;;;;;;10.65;4.63;;;;;;;-148.88;99.86;76315.53;5016033;28;20037;-87
2022/11/28 04:18:58;;;;;;;9.75;4.85;;;;;;;-148.88;100.00;76317.56;5015453;28;20036;-86
2022/11/28 04:21:41;;;;;;;8.90;5.05;;;;;;;-148.88;100.00;76317.56;5015713;28;20026;-86
2022/11/28 04:24:13;;;;;;;8.73;4.60;;;;;;;-148.88;100.00;76323.66;5016110;28;20029;-87
2022/11/28 04:26:43;;;;;;;7.45;4.72;;;;;;;-148.88;100.00;76323.66;5019162;28;20535;-88
2022/11/28 04:29:12;;;;;;;11.27;4.85;;;;;;;-148.88;100.00;76317.56;5013686;28;20029;-85
2022/11/28 04:31:42;;;;;;;11.18;4.95;;;;;;;-148.88;100.00;76327.72;5012844;28;20187;-84
2022/11/28 04:34:10;;;;;;;9.90;5.40;;;;;;;-148.88;100.00;76321.63;5012936;28;20472;-86
2022/11/28 04:36:39;;;;;;;10.02;5.28;;;;;;;-148.88;100.00;76327.72;5013339;28;20136;-84
2022/11/28 04:39:13;;;;;;;10.07;5.50;;;;;;;-148.88;100.00;76337.88;5014472;28;20144;-86
2022/11/28 04:41:48;;;;;;;12.25;5.25;;;;;;;-148.88;100.00;76343.97;5014518;28;20025;-86
2022/11/28 04:44:32;;;;;;;10.55;5.13;;;;;;;-148.88;100.00;76348.03;5014891;28;20022;-84
2022/11/28 04:46:57;;;;;;;9.70;5.50;;;;;;;-148.88;100.00;76350.06;5013314;28;20499;-86
2022/11/28 04:49:25;;;;;;;11.00;5.53;;;;;;;-148.88;100.00;76350.06;5013852;28;20034;-86
2022/11/28 04:52:07;;;;;;;9.38;5.38;;;;;;;-148.88;100.00;76350.06;5013975;28;20025;-85
2022/11/28 04:54:45;;;;;;;8.60;4.82;;;;;;;-148.88;100.00;76348.03;5014411;28;20124;-85
2022/11/28 04:57:18;;;;;;;9.35;4.85;;;;;;;-148.88;100.00;76350.06;5014106;28;20072;-85
2022/11/28 04:59:45;;;;;;;12.43;4.85;;;;;;;-148.88;100.00;76341.94;5014987;28;20051;-85
2022/11/28 05:02:13;;;;;;;9.07;4.70;;;;;;;-148.88;99.65;76343.97;5013684;28;20030;-85
2022/11/28 05:04:39;;;;;;;9.35;5.15;;;;;;;-148.88;99.80;76346.00;5013763;28;20041;-85
2022/11/28 05:07:06;;;;;;;8.57;4.50;;;;;;;-148.88;98.92;76341.94;5013289;28;20025;-85
2022/11/28 05:09:31;;;;;;;11.25;4.82;;;;;;;-148.88;98.79;76341.94;5013406;28;20475;-85
2022/11/28 05:11:57;;;;;;;8.65;4.50;;;;;;;-148.88;98.45;76341.94;5013157;28;20045;-85
2022/11/28 05:14:22;;;;;;;7.63;4.35;;;;;;;-148.88;97.78;76335.84;5012289;28;20072;-86
2022/11/28 05:16:48;;;;;;;7.95;4.53;;;;;;;-148.88;97.72;76341.94;5013338;28;20535;-85
2022/11/28 05:19:14;;;;;;;9.25;5.13;;;;;;;-148.88;98.12;76346.00;5013743;28;20026;-87
2022/11/28 05:21:40;;;;;;;9.57;4.45;;;;;;;-148.88;97.65;76335.84;5013135;28;20022;-85
2022/11/28 05:24:06;;;;;;;9.30;4.65;;;;;;;-148.88;97.29;76337.88;5013247;28;20034;-86
2022/11/28 05:26:33;;;;;;;8.88;4.70;;;;;;;-148.88;97.03;76335.84;5013654;28;20026;-86
2022/11/28 05:28:58;;;;;;;9.88;4.28;;;;;;;-148.88;96.85;76331.78;5014285;28;20084;-88
2022/11/28 05:31:23;;;;;;;7.53;4.45;;;;;;;-148.88;97.00;76337.88;5013509;28;20030;-88
2022/11/28 05:33:49;;;;;;;9.10;4.70;;;;;;;-148.88;96.65;76329.75;5013635;28;20048;-87
2022/11/28 05:36:15;;;;;;;10.45;4.82;;;;;;;-148.88;96.86;76333.81;5013500;28;20026;-88
2022/11/28 05:38:42;;;;;;;7.47;3.92;;;;;;;-148.88;97.05;76333.81;5013401;28;20071;-87
2022/11/28 05:41:07;;;;;;;8.88;4.57;;;;;;;-148.88;96.98;76335.84;5013832;28;20026;-88
2022/11/28 05:43:33;;;;;;;7.97;4.85;;;;;;;-148.88;97.13;76335.84;5013767;28;20026;-86
2022/11/28 05:45:59;;;;;;;7.65;4.28;;;;;;;-148.88;97.50;76346.00;5013245;28;20041;-89
2022/11/28 05:48:24;;;;;;;13.32;5.38;;;;;;;-148.88;97.32;76346.00;5013433;28;20061;-88
2022/11/28 05:50:50;;;;;;;9.32;5.28;;;;;;;-148.88;98.02;76352.09;5011915;28;20112;-89
2022/11/28 05:53:17;;;;;;;10.75;5.45;;;;;;;-148.88;99.33;76350.06;5014378;28;20052;-89
2022/11/28 05:55:43;;;;;;;9.90;5.05;;;;;;;-148.88;100.00;76362.25;5012892;28;20080;-87
2022/11/28 05:58:09;;;;;;;10.30;5.28;;;;;;;-148.88;100.00;76368.34;5013048;28;20480;-86
2022/11/28 06:00:35;;;;;;;9.32;5.18;;;;;;;-148.88;100.00;76368.34;5016784;28;20109;-85
2022/11/28 06:03:00;;;;;;;11.65;5.43;;;;;;;-148.88;100.00;76374.44;5017380;28;20053;-86
2022/11/28 06:05:26;;;;;;;10.27;5.55;;;;;;;-148.88;100.00;76374.44;5017716;28;20028;-88
2022/11/28 06:07:51;;;;;;;11.13;5.82;;;;;;;-148.88;100.00;76366.31;5016816;28;20026;-89
2022/11/28 06:10:17;;;;;;;12.80;5.47;;;;;;;-148.88;100.00;76376.47;5016769;28;20080;-87
2022/11/28 06:12:42;;;;;;;11.57;6.10;;;;;;;-148.88;100.00;76386.63;5017178;28;20033;-87
2022/11/28 06:15:08;;;;;;;8.98;5.55;;;;;;;-148.88;100.00;76386.63;5017575;28;20378;-86
2022/11/28 06:17:33;;;;;;;15.15;6.93;;;;;;;-148.88;100.00;76370.38;5016722;28;20091;-85
2022/11/28 06:19:59;;;;;;;9.32;5.28;;;;;;;-148.88;100.00;76370.38;5015348;28;20021;-87
2022/11/28 06:22:24;;;;;;;9.52;5.20;;;;;;;-148.88;100.00;76374.44;5015278;28;20026;-86
2022/11/28 06:24:49;;;;;;;10.57;5.55;;;;;;;-148.88;100.00;76374.44;5015197;28;20024;-87
2022/11/28 06:27:15;;;;;;;10.90;5.28;;;;;;;-148.88;100.00;76370.38;5014968;28;20057;-86
2022/11/28 06:29:42;;;;;;;12.35;5.65;;;;;;;-148.88;100.00;76366.31;5016070;28;20021;-86
2022/11/28 06:32:09;;;;;;;10.73;5.45;;;;;;;-148.88;100.00;76366.31;5015425;28;20030;-85
2022/11/28 06:34:36;;;;;;;10.35;5.53;;;;;;;-148.88;100.00;76376.47;5017771;28;20038;-85
2022/11/28 06:37:03;;;;;;;11.20;6.25;;;;;;;-148.88;100.00;76388.66;5014991;28;20132;-85
2022/11/28 06:39:32;;;;;;;12.60;6.15;;;;;;;-148.88;100.00;76394.75;5014726;28;20029;-85
2022/11/28 06:42:00;;;;;;;12.48;5.85;;;;;;;-148.88;100.00;76402.88;5017221;28;20022;-85
2022/11/28 06:44:29;;;;;;;17.25;6.47;;;;;;;-148.88;100.00;76404.91;5015356;28;20025;-85
2022/11/28 06:46:57;;;;;;;12.77;6.07;;;;;;;-148.88;100.00;76404.91;5015026;28;20036;-85
2022/11/28 06:49:23;;;;;;;11.32;5.80;;;;;;;-148.88;100.00;76408.97;5014170;28;20053;-85
2022/11/28 06:51:50;;;;;;;11.15;5.90;;;;;;;-148.88;100.00;76406.94;5013466;28;20049;-85
2022/11/28 06:54:21;;;;;;;11.80;5.97;;;;;;;-148.88;100.00;76406.94;5014760;28;20022;-85
2022/11/28 06:56:49;;;;;;;9.60;5.65;;;;;;;-148.88;100.00;76402.88;5015268;28;20473;-84
2022/11/28 06:59:21;;;;;;;11.50;6.13;;;;;;;-148.88;100.00;76394.75;5017059;28;20080;-85
2022/11/28 07:01:49;;;;;;;13.15;6.13;;;;;;;-148.88;100.00;76398.81;5013756;28;20050;-85
2022/11/28 07:04:14;;;;;;;9.95;5.97;;;;;;;-148.88;100.00;76392.72;5013649;28;20034;-86
2022/11/28 07:06:44;;;;;;;11.25;6.03;;;;;;;-148.88;100.00;76384.59;5013895;28;20022;-86
2022/11/28 07:09:14;;;;;;;9.23;5.47;;;;;;;-148.88;100.00;76386.63;5013588;28;20117;-85
2022/11/28 07:11:45;;;;;;;12.02;5.90;;;;;;;-148.88;100.00;76386.63;5008570;28;20060;-85
2022/11/28 07:14:14;;;;;;;12.15;5.78;;;;;;;-148.88;100.00;76370.38;5012337;28;20061;-84
2022/11/28 07:16:44;;;;;;;10.80;5.72;;;;;;;-148.88;100.00;76382.56;5013299;28;20034;-86
2022/11/28 07:19:36;;;;;;;12.85;6.00;;;;;;;-148.88;100.00;76378.50;4998412;28;20045;-85
2022/11/28 07:22:04;;;;;;;12.48;6.32;;;;;;;-148.88;100.00;76382.56;5014362;28;20045;-85
2022/11/28 07:24:31;;;;;;;11.35;6.53;;;;;;;-148.88;100.00;76386.63;5014913;28;20029;-85
2022/11/28 07:27:03;;;;;;;12.20;6.15;;;;;;;-148.88;100.00;76394.75;4997757;28;20044;-84
2022/11/28 07:29:34;;;;;;;12.82;6.63;;;;;;;-148.88;100.00;76394.75;4998219;28;20431;-85
2022/11/28 07:32:05;;;;;;;14.05;6.03;;;;;;;-148.88;100.00;76392.72;5013733;28;20037;-85
2022/11/28 07:34:32;;;;;;;11.25;6.32;;;;;;;-148.88;100.00;76404.91;5013608;28;20053;-85
2022/11/28 07:37:07;;;;;;;14.23;6.80;;;;;;;-148.88;100.00;76402.88;5013782;28;20068;-85
2022/11/28 07:39:35;;;;;;;11.60;6.60;;;;;;;-148.88;100.00;76404.91;5013817;28;20052;-85
2022/11/28 07:42:01;;;;;;;12.43;6.85;;;;;;;-148.88;100.00;76415.06;5014020;28;20076;-85
2022/11/28 07:44:31;;;;;;;15.40;6.55;;;;;;;-148.88;100.00;76419.16;5015411;28;20018;-85
2022/11/28 07:47:08;;;;;;;12.55;6.78;;;;;;;-148.88;100.00;76421.19;4999506;28;20404;-85
2022/11/28 07:49:35;;;;;;;12.60;6.65;;;;;;;-148.88;100.00;76425.25;5013685;28;20057;-85
2022/11/28 07:52:04;;;;;;;13.35;6.97;;;;;;;-148.88;100.00;76423.19;5013541;28;20021;-85
2022/11/28 07:54:33;;;;;;;13.02;6.75;;;;;;;-148.88;100.00;76427.28;5013749;28;20109;-85
2022/11/28 07:57:03;;;;;;;14.80;7.15;;;;;;;-148.88;100.00;76427.28;5013664;28;20120;-86
2022/11/28 07:59:30;;;;;;;14.88;7.18;;;;;;;-148.88;100.00;76425.25;5013322;28;20492;-85
2022/11/28 08:02:01;;;;;;;10.15;6.47;;;;;;;-148.88;100.00;76423.19;4996953;28;20095;-85
2022/11/28 08:04:32;;;;;;;14.65;6.32;;;;;;;-148.88;100.00;76427.28;5013591;28;20026;-85
2022/11/28 08:07:19;;;;;;;13.98;7.07;;;;;;;-148.88;100.00;76433.38;5012332;28;20128;-85
2022/11/28 08:10:00;;;;;;;14.45;7.22;;;;;;;-148.88;100.00;76431.34;5013843;28;20431;-85
2022/11/28 08:12:28;;;;;;;13.52;6.93;;;;;;;-148.88;100.00;76431.34;5011799;28;20041;-85
2022/11/28 08:15:03;;;;;;;12.40;7.00;;;;;;;-148.88;100.00;76431.34;5013127;28;20034;-85
2022/11/28 08:17:40;;;;;;;13.30;7.35;;;;;;;-148.88;100.00;76435.41;5012743;28;20041;-84
2022/11/28 08:20:21;;;;;;;13.93;7.38;;;;;;;-148.88;100.00;76439.47;4998037;28;20059;-86
2022/11/28 08:22:48;;;;;;;16.20;7.28;;;;;;;-148.88;100.00;76425.25;4996055;28;20030;-84
2022/11/28 08:25:25;;;;;;;13.32;7.22;;;;;;;-148.88;100.00;76427.28;5013083;28;20117;-85
2022/11/28 08:28:10;;;;;;;16.42;7.72;;;;;;;-148.88;100.00;76435.41;5014008;28;20029;-85
2022/11/28 08:30:47;;;;;;;15.07;6.43;;;;;;;-148.88;100.00;76431.34;5013318;28;20036;-86
2022/11/28 08:33:36;;;;;;;15.98;7.30;;;;;;;-148.88;100.00;76433.38;5012819;28;20485;-84
2022/11/28 08:36:10;;;;;;;15.18;7.63;;;;;;;-148.88;100.00;76435.41;5013708;28;20079;-85
2022/11/28 08:39:18;;;;;;;14.88;7.20;;;;;;;-148.88;100.00;76435.41;5001010;28;20492;-84
2022/11/28 08:42:25;;;;;;;17.88;7.85;;;;;;;-148.88;100.00;76435.41;5002293;28;20040;-85
2022/11/28 08:45:18;;;;;;;14.98;8.13;;;;;;;-148.88;100.00;76439.47;5010436;28;20037;-85
2022/11/28 08:47:50;;;;;;;15.00;7.65;;;;;;;-148.88;100.00;76435.41;4995255;28;20412;-84
2022/11/28 08:50:18;;;;;;;16.42;7.90;;;;;;;-148.88;100.00;76435.41;4995607;28;20447;-84
2022/11/28 08:53:10;;;;;;;16.08;7.05;;;;;;;-148.88;100.00;76435.41;4996501;28;20233;-85
2022/11/28 08:55:43;;;;;;;13.63;6.35;;;;;;;-148.88;100.00;76429.31;5010521;28;20034;-85
2022/11/28 09:00:56;;;;;;;15.50;7.57;;;;;;;-148.88;100.00;76419.16;5030572;28;20052;-76
2022/11/28 09:03:21;;;;;;;14.05;6.32;;;;;;;-148.88;100.00;76419.16;5033540;28;20017;-76
2022/11/28 09:05:47;;;;;;;13.52;7.03;;;;;;;-148.88;100.00;76425.25;5033447;28;20033;-76
2022/11/28 09:08:14;;;;;;;13.65;6.32;;;;;;;-148.88;100.00;76415.06;5033389;28;20029;-76
2022/11/28 09:10:40;;;;;;;16.25;7.22;;;;;;;-148.88;100.00;76419.16;5033360;28;20030;-76
2022/11/28 09:13:07;;;;;;;13.65;7.47;;;;;;;-148.88;100.00;76425.25;5033197;28;20383;-76
2022/11/28 09:15:33;;;;;;;14.88;7.82;;;;;;;-148.88;100.00;76425.25;5033319;28;20029;-76
2022/11/28 09:17:59;;;;;;;16.13;7.72;;;;;;;-148.88;100.00;76423.19;5033238;28;20033;-75
2022/11/28 09:20:24;;;;;;;14.02;7.57;;;;;;;-148.88;100.00;76423.19;5033270;28;20036;-75
2022/11/28 09:22:50;;;;;;;16.02;7.45;;;;;;;-148.88;100.00;76413.03;5033192;28;20386;-76
2022/11/28 09:25:15;;;;;;;15.77;7.78;;;;;;;-148.88;100.00;76419.16;5033352;28;20028;-76
2022/11/28 09:27:41;;;;;;;15.32;6.97;;;;;;;-148.88;100.00;76415.06;5033157;28;20037;-76
2022/11/28 09:30:08;;;;;;;15.88;7.10;;;;;;;-148.88;100.00;76419.16;5033403;28;20029;-76
2022/11/28 09:32:34;;;;;;;14.48;7.05;;;;;;;-148.88;100.00;76408.97;5033097;28;20451;-76
2022/11/28 09:35:00;;;;;;;15.88;7.30;;;;;;;-148.88;100.00;76415.06;5032825;28;20084;-76
2022/11/28 09:37:27;;;;;;;14.20;7.15;;;;;;;-148.88;100.00;76406.94;5033486;28;20029;-76
2022/11/28 09:39:53;;;;;;;13.82;7.00;;;;;;;-148.88;100.00;76406.94;5032989;28;20036;-75
2022/11/28 09:42:29;;;;;;;16.42;7.40;;;;;;;-148.88;100.00;76404.91;5031735;28;20017;-76
2022/11/28 09:45:04;;;;;;;13.52;6.97;;;;;;;-148.88;100.00;76402.88;5033307;28;20108;-76
2022/11/28 09:47:32;;;;;;;16.70;7.32;;;;;;;-148.88;100.00;76394.75;5032942;28;20027;-76
2022/11/28 09:50:09;;;;;;;18.65;7.60;;;;;;;-148.88;100.00;76398.81;5032935;28;20026;-76
2022/11/28 09:52:45;;;;;;;17.80;7.63;;;;;;;-148.88;100.00;76396.78;5033163;28;20029;-76
2022/11/28 09:55:19;;;;;;;19.20;7.05;;;;;;;-148.88;100.00;76382.56;5033175;28;20040;-76
2022/11/28 09:57:47;;;;;;;13.25;6.50;;;;;;;-148.88;100.00;76386.63;5033114;28;20072;-76
2022/11/28 10:00:52;;;;;;;13.90;7.10;;;;;;;-148.88;100.00;76386.63;5031508;28;20021;-76
2022/11/28 10:03:41;;;;;;;15.18;7.22;;;;;;;-148.88;100.00;76394.75;5032929;28;20025;-75
2022/11/28 10:06:12;;;;;;;18.25;7.63;;;;;;;-148.88;100.00;76394.75;5031489;28;20402;-76
2022/11/28 10:08:49;;;;;;;15.63;7.55;;;;;;;-148.88;100.00;76390.69;5032895;28;20025;-76
2022/11/28 10:11:32;;;;;;;16.55;7.95;;;;;;;-148.88;100.00;76384.59;5032750;28;20029;-76
2022/11/28 10:14:00;;;;;;;13.40;7.67;;;;;;;-148.88;100.00;76378.50;5032732;28;20029;-76
2022/11/28 10:16:43;;;;;;;15.15;8.25;;;;;;;-148.88;100.00;76372.41;5032700;28;20033;-76
2022/11/28 10:19:14;;;;;;;13.98;7.60;;;;;;;-148.88;100.00;76378.50;5032658;28;20021;-76
2022/11/28 10:22:01;;;;;;;16.65;8.45;;;;;;;-148.88;100.00;76374.44;5032962;28;20017;-76
2022/11/28 10:24:42;;;;;;;16.35;7.68;;;;;;;-148.88;100.00;76374.44;5031277;28;20029;-76
2022/11/28 10:27:13;;;;;;;13.80;7.63;;;;;;;-148.88;100.00;76374.44;5032629;28;20024;-76
2022/11/28 10:29:56;;;;;;;13.43;7.65;;;;;;;-148.88;100.00;76370.38;5032658;28;20028;-76
2022/11/28 10:32:31;;;;;;;16.65;8.23;;;;;;;-148.88;100.00;76366.31;5032864;28;20021;-76
2022/11/28 10:35:05;;;;;;;14.30;7.35;;;;;;;-148.88;100.00;76366.31;5032492;28;20029;-76
2022/11/28 10:37:34;;;;;;;15.48;8.30;;;;;;;-148.88;100.00;76358.19;5032503;28;20387;-76
2022/11/28 10:40:41;;;;;;;15.93;8.50;;;;;;;-148.88;100.00;76356.16;5033234;28;20107;-76
2022/11/28 10:43:48;;;;;;;16.70;8.15;;;;;;;-148.88;100.00;76354.13;5011154;28;20033;-76
2022/11/28 10:46:29;;;;;;;15.60;7.72;;;;;;;-148.88;100.00;76358.19;5035950;28;20079;-76
2022/11/28 10:49:09;;;;;;;17.58;8.63;;;;;;;-148.88;100.00;76364.28;5035977;28;20021;-76
2022/11/28 10:51:45;;;;;;;15.27;8.35;;;;;;;-148.88;100.00;76354.13;5035892;28;20473;-76
2022/11/28 10:54:51;;;;;;;16.45;9.00;;;;;;;-148.88;100.00;76352.09;5036226;28;20038;-76
2022/11/28 10:57:26;;;;;;;15.98;7.28;;;;;;;-148.88;100.00;76346.00;5036365;28;20021;-76
2022/11/28 11:00:11;;;;;;;20.33;8.45;;;;;;;-148.88;100.00;76346.00;5035906;28;20131;-75
2022/11/28 11:02:42;;;;;;;19.02;8.85;;;;;;;-148.88;100.00;76348.03;5034523;28;20053;-76
2022/11/28 11:05:13;;;;;;;15.43;8.38;;;;;;;-148.88;100.00;76343.97;5035903;28;20025;-75
2022/11/28 11:07:46;;;;;;;18.38;8.93;;;;;;;-148.88;100.00;76333.81;5034390;28;20061;-76
2022/11/28 11:10:16;;;;;;;18.27;8.63;;;;;;;-148.88;100.00;76341.94;5036108;28;20029;-76
2022/11/28 11:12:42;;;;;;;19.17;8.68;;;;;;;-148.88;100.00;76337.88;5035736;28;20025;-76
2022/11/28 11:15:44;;;;;;;17.60;8.98;;;;;;;-148.88;100.00;76325.69;5035799;28;20521;-76
2022/11/28 11:18:49;;;;;;;15.10;8.55;;;;;;;-148.88;100.00;76325.69;5032990;28;20069;-76
2022/11/28 11:21:14;;;;;;;14.20;8.18;;;;;;;-148.88;100.00;76329.75;5011286;28;20064;-75
2022/11/28 11:23:40;;;;;;;17.92;9.05;;;;;;;-148.88;100.00;76325.69;5035429;28;20029;-75
2022/11/28 11:26:09;;;;;;;16.60;8.52;;;;;;;-148.88;100.00;76317.56;5035332;28;20513;-76
2022/11/28 11:28:42;;;;;;;15.13;8.40;;;;;;;-148.88;100.00;76313.50;5035203;28;20021;-76
2022/11/28 11:31:18;;;;;;;15.00;7.93;;;;;;;-148.88;100.00;76311.47;5035105;28;20083;-75
2022/11/28 11:33:44;;;;;;;14.35;8.20;;;;;;;-148.88;100.00;76313.50;5035945;28;20092;-76
2022/11/28 11:36:38;;;;;;;16.00;8.55;;;;;;;-148.88;100.00;76305.38;5035417;28;20036;-76